createdAt,value
2023-03-29T00:00:37.761Z,21.95
2023-03-29T00:03:04.671Z,20.11
2023-03-29T00:05:34.939Z,17.92
2023-03-29T00:08:03.928Z,18.38
2023-03-29T00:10:31.137Z,19.95
2023-03-29T00:12:57.984Z,20.49
2023-03-29T00:15:24.825Z,20.75
2023-03-29T00:17:51.615Z,20.95
2023-03-29T00:20:18.407Z,21.09
2023-03-29T00:22:46.644Z,21.24
2023-03-29T00:25:13.451Z,21.32
2023-03-29T00:27:40.236Z,21.38
2023-03-29T00:30:06.989Z,21.60
2023-03-29T00:32:34.070Z,21.57
2023-03-29T00:35:00.958Z,21.66
2023-03-29T00:37:29.768Z,21.77
2023-03-29T00:39:56.752Z,21.84
2023-03-29T00:42:23.527Z,21.82
2023-03-29T00:44:50.386Z,21.96
2023-03-29T00:47:18.120Z,21.98
2023-03-29T00:49:44.884Z,20.43
2023-03-29T00:52:11.664Z,18.01
2023-03-29T00:54:38.486Z,18.40
2023-03-29T00:57:06.644Z,19.91
2023-03-29T00:59:35.370Z,20.35
2023-03-29T01:02:02.170Z,20.70
2023-03-29T01:04:29.526Z,20.92
2023-03-29T01:06:56.459Z,21.05
2023-03-29T01:09:23.258Z,21.13
2023-03-29T01:11:50.032Z,21.23
2023-03-29T01:14:16.786Z,21.31
2023-03-29T01:16:43.597Z,21.52
2023-03-29T01:19:10.369Z,21.72
2023-03-29T01:21:37.743Z,21.60
2023-03-29T01:24:06.567Z,21.77
2023-03-29T01:26:33.354Z,21.81
2023-03-29T01:29:00.117Z,21.85
2023-03-29T01:31:26.894Z,21.88
2023-03-29T01:33:53.703Z,20.78
2023-03-29T01:36:20.519Z,17.98
2023-03-29T01:38:48.280Z,18.07
2023-03-29T01:41:15.079Z,19.71
2023-03-29T01:43:41.861Z,20.34
2023-03-29T01:46:08.626Z,20.53
2023-03-29T01:48:35.451Z,20.79
2023-03-29T01:51:04.372Z,21.05
2023-03-29T01:53:31.464Z,21.04
2023-03-29T01:55:58.248Z,21.29
2023-03-29T01:58:25.007Z,21.35
2023-03-29T02:00:53.882Z,21.46
2023-03-29T02:03:21.812Z,21.50
2023-03-29T02:05:48.974Z,21.68
2023-03-29T02:08:15.920Z,21.73
2023-03-29T02:10:42.748Z,21.77
2023-03-29T02:13:09.483Z,21.84
2023-03-29T02:15:36.272Z,21.83
2023-03-29T02:18:03.933Z,21.95
2023-03-29T02:20:31.406Z,21.88
2023-03-29T02:22:58.369Z,21.49
2023-03-29T02:25:25.862Z,18.26
2023-03-29T02:27:52.669Z,18.04
2023-03-29T02:30:20.594Z,19.67
2023-03-29T02:32:48.841Z,20.37
2023-03-29T02:35:15.742Z,20.61
2023-03-29T02:37:43.012Z,20.87
2023-03-29T02:40:12.351Z,21.08
2023-03-29T02:42:39.087Z,21.30
2023-03-29T02:45:05.829Z,21.30
2023-03-29T02:47:32.690Z,21.53
2023-03-29T02:49:59.508Z,21.49
2023-03-29T02:52:26.324Z,21.50
2023-03-29T02:54:54.284Z,21.62
2023-03-29T02:57:26.278Z,21.76
2023-03-29T02:59:53.143Z,21.83
2023-03-29T03:02:19.978Z,21.89
2023-03-29T03:04:46.890Z,21.92
2023-03-29T03:07:13.652Z,21.57
2023-03-29T03:09:40.455Z,18.24
2023-03-29T03:12:07.509Z,17.41
2023-03-29T03:14:34.295Z,19.16
2023-03-29T03:17:03.875Z,20.12
2023-03-29T03:19:31.498Z,20.45
2023-03-29T03:21:59.527Z,20.80
2023-03-29T03:24:27.970Z,21.03
2023-03-29T03:26:55.267Z,21.15
2023-03-29T03:29:22.057Z,21.21
2023-03-29T03:31:49.073Z,21.35
2023-03-29T03:34:17.320Z,21.51
2023-03-29T03:36:44.075Z,21.56
2023-03-29T03:39:11.719Z,21.63
2023-03-29T03:41:38.674Z,21.56
2023-03-29T03:44:05.516Z,21.65
2023-03-29T03:46:32.303Z,21.74
2023-03-29T03:48:59.524Z,21.80
2023-03-29T03:51:26.994Z,21.83
2023-03-29T03:53:53.772Z,21.88
2023-03-29T03:56:20.543Z,21.97
2023-03-29T03:58:47.492Z,19.72
2023-03-29T04:01:14.262Z,18.12
2023-03-29T04:03:41.184Z,18.29
2023-03-29T04:06:08.088Z,19.95
2023-03-29T04:08:35.021Z,20.43
2023-03-29T04:11:01.948Z,20.62
2023-03-29T04:13:29.259Z,20.84
2023-03-29T04:15:58.806Z,21.24
2023-03-29T04:18:27.407Z,21.19
2023-03-29T04:20:54.255Z,21.33
2023-03-29T04:23:21.026Z,21.38
2023-03-29T04:25:47.787Z,21.42
2023-03-29T04:28:14.544Z,21.53
2023-03-29T04:30:41.302Z,21.65
2023-03-29T04:33:08.126Z,21.68
2023-03-29T04:35:34.988Z,21.74
2023-03-29T04:38:01.996Z,21.82
2023-03-29T04:40:29.006Z,21.97
2023-03-29T04:42:55.819Z,21.83
2023-03-29T04:45:22.617Z,21.94
2023-03-29T04:47:49.692Z,21.49
2023-03-29T04:50:16.496Z,18.08
2023-03-29T04:52:45.247Z,18.25
2023-03-29T04:55:12.643Z,19.72
2023-03-29T04:57:39.555Z,20.44
2023-03-29T05:00:14.661Z,20.71
2023-03-29T05:02:41.697Z,20.95
2023-03-29T05:05:08.487Z,21.10
2023-03-29T05:07:35.617Z,21.34
2023-03-29T05:10:02.369Z,21.40
2023-03-29T05:12:29.108Z,21.41
2023-03-29T05:14:56.759Z,21.55
2023-03-29T05:17:23.901Z,21.63
2023-03-29T05:19:50.706Z,21.60
2023-03-29T05:22:17.480Z,21.73
2023-03-29T05:24:44.406Z,21.87
2023-03-29T05:27:11.659Z,21.90
2023-03-29T05:29:38.430Z,21.85
2023-03-29T05:32:05.393Z,20.55
2023-03-29T05:34:32.210Z,17.95
2023-03-29T05:36:59.131Z,18.40
2023-03-29T05:39:25.930Z,19.92
2023-03-29T05:41:52.975Z,20.46
2023-03-29T05:44:19.767Z,20.83
2023-03-29T05:46:46.935Z,21.03
2023-03-29T05:49:13.815Z,21.20
2023-03-29T05:51:41.940Z,21.24
2023-03-29T05:54:08.849Z,21.38
2023-03-29T05:56:35.741Z,21.44
2023-03-29T05:59:02.635Z,21.57
2023-03-29T06:01:29.366Z,21.62
2023-03-29T06:03:57.343Z,21.64
2023-03-29T06:06:24.200Z,21.76
2023-03-29T06:08:51.061Z,21.83
2023-03-29T06:11:17.805Z,21.94
2023-03-29T06:13:44.593Z,22.03
2023-03-29T06:16:12.855Z,21.00
2023-03-29T06:18:40.140Z,18.41
2023-03-29T06:21:09.110Z,19.14
2023-03-29T06:23:36.304Z,20.13
2023-03-29T06:26:03.377Z,20.65
2023-03-29T06:28:30.550Z,20.86
2023-03-29T06:31:02.921Z,21.08
2023-03-29T06:33:32.221Z,21.32
2023-03-29T06:35:59.117Z,21.38
2023-03-29T06:38:27.944Z,21.53
2023-03-29T06:40:54.704Z,21.59
2023-03-29T06:43:21.571Z,21.69
2023-03-29T06:45:48.322Z,21.75
2023-03-29T06:48:15.146Z,22.00
2023-03-29T06:50:41.920Z,21.93
2023-03-29T06:53:08.728Z,21.90
2023-03-29T06:55:36.045Z,22.05
2023-03-29T06:58:04.091Z,19.47
2023-03-29T07:00:35.760Z,19.00
2023-03-29T07:03:02.698Z,19.84
2023-03-29T07:05:30.048Z,19.64
2023-03-29T07:07:57.279Z,19.92
2023-03-29T07:10:24.203Z,20.37
2023-03-29T07:12:51.448Z,20.88
2023-03-29T07:15:18.276Z,21.01
2023-03-29T07:17:45.627Z,21.26
2023-03-29T07:20:13.863Z,21.41
2023-03-29T07:22:40.775Z,21.36
2023-03-29T07:25:09.249Z,21.45
2023-03-29T07:27:36.020Z,21.65
2023-03-29T07:30:04.110Z,21.65
2023-03-29T07:32:31.319Z,21.70
2023-03-29T07:34:58.321Z,21.77
2023-03-29T07:37:25.122Z,21.84
2023-03-29T07:39:52.236Z,21.91
2023-03-29T07:42:18.991Z,21.90
2023-03-29T07:44:45.856Z,19.65
2023-03-29T07:47:13.247Z,17.95
2023-03-29T07:49:40.068Z,18.90
2023-03-29T07:52:07.101Z,20.02
2023-03-29T07:54:34.367Z,20.35
2023-03-29T07:57:01.214Z,20.68
2023-03-29T07:59:27.983Z,21.00
2023-03-29T08:01:55.286Z,21.14
2023-03-29T08:04:22.170Z,21.35
2023-03-29T08:06:49.031Z,21.38
2023-03-29T08:09:16.454Z,21.65
2023-03-29T08:11:43.225Z,21.55
2023-03-29T08:14:10.137Z,21.72
2023-03-29T08:16:36.955Z,21.73
2023-03-29T08:19:03.719Z,21.80
2023-03-29T08:21:30.470Z,21.91
2023-03-29T08:23:57.599Z,21.97
2023-03-29T08:26:24.396Z,22.06
2023-03-29T08:28:51.419Z,19.11
2023-03-29T08:31:18.483Z,18.99
2023-03-29T08:33:45.301Z,19.51
2023-03-29T08:36:12.302Z,19.78
2023-03-29T08:38:39.132Z,20.33
2023-03-29T08:41:06.027Z,20.84
2023-03-29T08:43:32.809Z,21.09
2023-03-29T08:46:00.030Z,21.20
2023-03-29T08:48:28.300Z,21.38
2023-03-29T08:50:55.205Z,21.51
2023-03-29T08:53:21.989Z,21.54
2023-03-29T08:55:48.872Z,21.63
2023-03-29T08:58:15.736Z,21.81
2023-03-29T09:00:42.767Z,21.77
2023-03-29T09:03:09.621Z,21.91
2023-03-29T09:05:36.987Z,21.92
2023-03-29T09:08:03.801Z,21.88
2023-03-29T09:10:30.877Z,18.91
2023-03-29T09:12:57.681Z,19.03
2023-03-29T09:15:24.854Z,20.03
2023-03-29T09:17:51.661Z,20.75
2023-03-29T09:20:18.487Z,20.91
2023-03-29T09:22:45.430Z,21.33
2023-03-29T09:25:12.203Z,21.30
2023-03-29T09:27:38.989Z,21.49
2023-03-29T09:30:06.090Z,21.60
2023-03-29T09:32:33.014Z,21.68
2023-03-29T09:34:59.882Z,21.74
2023-03-29T09:37:26.666Z,21.85
2023-03-29T09:39:53.477Z,21.86
2023-03-29T09:42:20.265Z,22.01
2023-03-29T09:44:47.310Z,19.44
2023-03-29T09:47:14.038Z,17.48
2023-03-29T09:49:40.848Z,18.31
2023-03-29T09:52:07.607Z,19.73
2023-03-29T09:54:34.379Z,20.29
2023-03-29T09:57:01.874Z,20.65
2023-03-29T09:59:28.989Z,20.78
2023-03-29T10:01:55.928Z,20.99
2023-03-29T10:04:22.797Z,21.20
2023-03-29T10:06:50.259Z,21.27
2023-03-29T10:09:17.025Z,21.41
2023-03-29T10:11:46.609Z,21.60
2023-03-29T10:14:13.445Z,21.62
2023-03-29T10:16:41.157Z,21.72
2023-03-29T10:19:07.947Z,21.73
2023-03-29T10:21:34.733Z,21.77
2023-03-29T10:24:01.830Z,21.95
2023-03-29T10:26:28.600Z,22.05
2023-03-29T10:28:57.144Z,21.99
2023-03-29T10:31:24.038Z,19.30
2023-03-29T10:33:51.023Z,18.79
2023-03-29T10:36:18.044Z,19.83
2023-03-29T10:38:44.973Z,20.39
2023-03-29T10:41:11.988Z,20.93
2023-03-29T10:43:38.793Z,21.11
2023-03-29T10:46:05.914Z,21.20
2023-03-29T10:48:32.710Z,21.33
2023-03-29T10:50:59.589Z,21.53
2023-03-29T10:53:26.530Z,21.65
2023-03-29T10:55:53.404Z,21.68
2023-03-29T10:58:20.274Z,21.69
2023-03-29T11:00:47.572Z,21.85
2023-03-29T11:03:17.048Z,21.91
2023-03-29T11:05:44.974Z,21.50
2023-03-29T11:08:11.728Z,18.88
2023-03-29T11:10:38.498Z,19.10
2023-03-29T11:13:05.738Z,20.13
2023-03-29T11:15:32.979Z,20.56
2023-03-29T11:17:59.794Z,20.93
2023-03-29T11:20:26.920Z,21.13
2023-03-29T11:22:53.824Z,21.28
2023-03-29T11:25:20.631Z,21.38
2023-03-29T11:27:47.445Z,21.65
2023-03-29T11:30:14.603Z,21.63
2023-03-29T11:32:41.951Z,21.77
2023-03-29T11:35:08.766Z,21.94
2023-03-29T11:37:35.606Z,21.87
2023-03-29T11:40:02.370Z,21.96
2023-03-29T11:42:29.458Z,20.33
2023-03-29T11:46:02.595Z,18.18
2023-03-29T11:48:29.702Z,19.61
2023-03-29T11:50:56.486Z,20.40
2023-03-29T11:53:23.239Z,20.97
2023-03-29T11:55:50.001Z,21.07
2023-03-29T11:58:16.754Z,21.21
2023-03-29T12:00:43.523Z,21.47
2023-03-29T12:03:10.393Z,21.50
2023-03-29T12:05:37.261Z,21.52
2023-03-29T12:08:04.015Z,21.66
2023-03-29T12:10:30.857Z,21.85
2023-03-29T12:13:00.579Z,21.93
2023-03-29T12:15:27.348Z,22.00
2023-03-29T12:17:54.264Z,22.06
2023-03-29T12:20:23.416Z,22.15
2023-03-29T12:22:50.861Z,22.15
2023-03-29T12:25:18.829Z,22.26
2023-03-29T12:27:46.715Z,22.25
2023-03-29T12:30:13.482Z,22.35
2023-03-29T12:32:40.293Z,22.33
2023-03-29T12:35:07.314Z,22.49
2023-03-29T12:37:35.801Z,22.44
2023-03-29T12:40:02.678Z,22.53
2023-03-29T12:42:29.531Z,22.55
2023-03-29T12:44:56.374Z,22.55
2023-03-29T12:47:23.494Z,22.67
2023-03-29T12:49:50.248Z,22.68
2023-03-29T12:52:17.025Z,22.68
2023-03-29T12:54:43.940Z,22.76
2023-03-29T12:57:10.851Z,22.74
2023-03-29T12:59:37.922Z,22.89
2023-03-29T13:02:08.551Z,22.49
2023-03-29T13:04:36.121Z,19.57
2023-03-29T13:07:03.420Z,18.85
2023-03-29T13:09:30.256Z,20.39
2023-03-29T13:11:57.155Z,21.13
2023-03-29T13:14:23.914Z,21.53
2023-03-29T13:16:50.792Z,21.70
2023-03-29T13:19:17.552Z,21.91
2023-03-29T13:21:44.341Z,22.23
2023-03-29T13:24:11.169Z,22.18
2023-03-29T13:26:37.941Z,22.25
2023-03-29T13:29:04.685Z,22.23
2023-03-29T13:31:31.561Z,22.26
2023-03-29T13:33:58.346Z,22.44
2023-03-29T13:36:25.178Z,22.49
2023-03-29T13:38:52.005Z,22.65
2023-03-29T13:41:18.752Z,22.63
2023-03-29T13:43:45.554Z,22.72
2023-03-29T13:46:12.470Z,22.72
2023-03-29T13:48:39.337Z,22.74
2023-03-29T13:51:08.199Z,22.85
2023-03-29T13:53:35.018Z,22.95
2023-03-29T13:56:02.903Z,22.82
2023-03-29T13:58:30.010Z,22.90
2023-03-29T14:00:56.948Z,21.36
2023-03-29T14:03:29.555Z,19.51
2023-03-29T14:05:56.387Z,18.66
2023-03-29T14:08:23.153Z,20.65
2023-03-29T14:10:49.920Z,21.25
2023-03-29T14:13:16.835Z,21.67
2023-03-29T14:15:43.668Z,21.87
2023-03-29T14:18:10.711Z,21.98
2023-03-29T14:20:37.513Z,22.03
2023-03-29T14:23:04.285Z,22.19
2023-03-29T14:25:31.047Z,22.25
2023-03-29T14:27:57.815Z,22.33
2023-03-29T14:30:24.860Z,22.51
2023-03-29T14:32:52.322Z,22.53
2023-03-29T14:35:19.151Z,22.54
2023-03-29T14:37:46.339Z,22.65
2023-03-29T14:40:15.234Z,22.65
2023-03-29T14:42:42.410Z,22.72
2023-03-29T14:45:09.710Z,22.77
2023-03-29T14:47:36.744Z,22.82
2023-03-29T14:50:03.853Z,22.81
2023-03-29T14:52:30.736Z,22.64
2023-03-29T14:54:57.572Z,19.73
2023-03-29T14:57:24.422Z,18.84
2023-03-29T14:59:51.600Z,20.33
2023-03-29T15:02:18.423Z,21.09
2023-03-29T15:04:45.155Z,21.47
2023-03-29T15:07:11.964Z,22.00
2023-03-29T15:09:39.856Z,22.13
2023-03-29T15:12:06.594Z,22.04
2023-03-29T15:14:37.889Z,22.27
2023-03-29T15:17:04.636Z,22.25
2023-03-29T15:19:31.828Z,22.33
2023-03-29T15:21:59.947Z,22.42
2023-03-29T15:24:28.531Z,22.43
2023-03-29T15:26:55.502Z,22.48
2023-03-29T15:29:25.863Z,22.53
2023-03-29T15:31:52.721Z,22.66
2023-03-29T15:34:19.676Z,22.75
2023-03-29T15:36:47.184Z,22.79
2023-03-29T15:39:13.985Z,22.93
2023-03-29T15:41:40.985Z,22.79
2023-03-29T15:44:07.842Z,22.98
2023-03-29T15:46:34.624Z,20.48
2023-03-29T15:49:01.367Z,18.62
2023-03-29T15:51:28.139Z,18.75
2023-03-29T15:53:55.116Z,20.49
2023-03-29T15:56:22.802Z,21.04
2023-03-29T15:58:49.597Z,21.60
2023-03-29T16:01:19.028Z,21.75
2023-03-29T16:03:47.872Z,21.81
2023-03-29T16:06:15.033Z,21.94
2023-03-29T16:08:41.929Z,22.14
2023-03-29T16:11:09.037Z,22.21
2023-03-29T16:13:35.834Z,22.29
2023-03-29T16:16:02.894Z,22.32
2023-03-29T16:18:30.004Z,22.43
2023-03-29T16:20:56.989Z,22.44
2023-03-29T16:23:23.760Z,22.46
2023-03-29T16:25:50.699Z,22.52
2023-03-29T16:28:17.519Z,22.60
2023-03-29T16:30:44.282Z,22.68
2023-03-29T16:33:11.233Z,22.66
2023-03-29T16:35:38.197Z,22.80
2023-03-29T16:38:05.120Z,22.87
2023-03-29T16:40:33.064Z,23.02
2023-03-29T16:42:59.929Z,22.99
2023-03-29T16:45:27.155Z,20.25
2023-03-29T16:47:54.454Z,18.31
2023-03-29T16:50:21.832Z,18.99
2023-03-29T16:52:48.764Z,20.60
2023-03-29T16:55:15.692Z,21.30
2023-03-29T16:57:42.492Z,21.34
2023-03-29T17:00:10.727Z,21.66
2023-03-29T17:02:37.589Z,21.76
2023-03-29T17:05:04.444Z,21.89
2023-03-29T17:07:31.273Z,22.02
2023-03-29T17:09:58.316Z,22.10
2023-03-29T17:12:25.360Z,22.20
2023-03-29T17:14:52.552Z,22.25
2023-03-29T17:17:19.304Z,22.38
2023-03-29T17:19:46.099Z,22.44
2023-03-29T17:22:12.895Z,22.52
2023-03-29T17:24:39.651Z,22.55
2023-03-29T17:27:06.442Z,22.57
2023-03-29T17:29:33.197Z,22.59
2023-03-29T17:31:59.976Z,22.70
2023-03-29T17:34:28.856Z,22.77
2023-03-29T17:36:55.690Z,22.73
2023-03-29T17:39:24.950Z,22.75
2023-03-29T17:41:51.870Z,22.89
2023-03-29T17:44:18.682Z,23.00
2023-03-29T17:46:45.950Z,22.35
2023-03-29T17:49:12.790Z,19.56
2023-03-29T17:51:39.547Z,18.29
2023-03-29T17:54:06.672Z,20.00
2023-03-29T17:56:33.831Z,21.03
2023-03-29T17:59:00.852Z,21.42
2023-03-29T18:01:28.125Z,21.75
2023-03-29T18:03:55.005Z,21.93
2023-03-29T18:06:21.814Z,21.95
2023-03-29T18:08:48.584Z,22.12
2023-03-29T18:11:16.007Z,22.24
2023-03-29T18:13:44.275Z,22.26
2023-03-29T18:16:11.068Z,22.30
2023-03-29T18:18:38.356Z,22.30
2023-03-29T18:21:06.798Z,22.44
2023-03-29T18:23:33.863Z,22.57
2023-03-29T18:26:02.886Z,22.50
2023-03-29T18:28:29.862Z,22.55
2023-03-29T18:30:56.628Z,22.62
2023-03-29T18:33:23.386Z,22.89
2023-03-29T18:35:51.006Z,22.78
2023-03-29T18:38:17.765Z,22.82
2023-03-29T18:40:44.555Z,22.93
2023-03-29T18:43:11.312Z,22.72
2023-03-29T18:45:38.123Z,19.68
2023-03-29T18:48:05.580Z,18.23
2023-03-29T18:50:32.397Z,19.70
2023-03-29T18:52:59.163Z,20.78
2023-03-29T18:55:25.957Z,21.41
2023-03-29T18:57:52.744Z,21.62
2023-03-29T19:00:19.885Z,21.83
2023-03-29T19:02:46.736Z,21.89
2023-03-29T19:05:13.732Z,22.03
2023-03-29T19:07:40.521Z,22.14
2023-03-29T19:10:07.687Z,22.17
2023-03-29T19:12:35.233Z,22.18
2023-03-29T19:15:02.081Z,22.23
2023-03-29T19:17:28.997Z,22.33
2023-03-29T19:19:56.669Z,22.51
2023-03-29T19:22:23.430Z,22.53
2023-03-29T19:24:50.327Z,22.58
2023-03-29T19:27:17.105Z,22.65
2023-03-29T19:29:43.851Z,22.71
2023-03-29T19:32:10.880Z,22.81
2023-03-29T19:34:37.657Z,22.81
2023-03-29T19:37:04.378Z,22.90
2023-03-29T19:39:31.173Z,22.90
2023-03-29T19:41:57.976Z,22.91
2023-03-29T19:44:24.810Z,20.59
2023-03-29T19:46:51.696Z,18.69
2023-03-29T19:49:18.810Z,18.91
2023-03-29T19:51:45.933Z,20.80
2023-03-29T19:54:13.168Z,21.22
2023-03-29T19:56:39.995Z,21.47
2023-03-29T19:59:06.850Z,21.78
2023-03-29T20:01:33.817Z,21.94
2023-03-29T20:04:01.626Z,22.00
2023-03-29T20:06:28.573Z,22.18
2023-03-29T20:08:56.328Z,22.18
2023-03-29T20:11:24.210Z,22.27
2023-03-29T20:13:51.008Z,22.30
2023-03-29T20:16:18.102Z,22.43
2023-03-29T20:18:45.097Z,22.47
2023-03-29T20:21:13.849Z,22.45
2023-03-29T20:23:41.111Z,22.62
2023-03-29T20:26:08.323Z,22.73
2023-03-29T20:28:37.410Z,22.69
2023-03-29T20:31:04.417Z,22.73
2023-03-29T20:33:31.607Z,22.84
2023-03-29T20:35:58.505Z,22.77
2023-03-29T20:38:25.821Z,22.85
2023-03-29T20:40:53.392Z,22.94
2023-03-29T20:43:20.177Z,20.54
2023-03-29T20:45:53.851Z,18.35
2023-03-29T20:48:22.800Z,19.17
2023-03-29T20:50:49.966Z,20.68
2023-03-29T20:53:18.002Z,21.31
2023-03-29T20:55:44.810Z,21.60
2023-03-29T20:58:11.633Z,21.68
2023-03-29T21:00:38.422Z,21.90
2023-03-29T21:03:05.242Z,22.07
2023-03-29T21:05:32.160Z,22.06
2023-03-29T21:07:58.937Z,22.18
2023-03-29T21:10:25.715Z,22.31
2023-03-29T21:12:54.139Z,22.38
2023-03-29T21:15:20.912Z,22.38
2023-03-29T21:17:47.789Z,22.47
2023-03-29T21:20:14.609Z,22.49
2023-03-29T21:22:42.902Z,22.60
2023-03-29T21:25:10.005Z,22.70
2023-03-29T21:27:36.764Z,22.73
2023-03-29T21:30:03.585Z,22.78
2023-03-29T21:32:31.291Z,22.79
2023-03-29T21:34:58.117Z,22.96
2023-03-29T21:37:24.899Z,22.92
2023-03-29T21:39:51.763Z,22.97
2023-03-29T21:42:18.622Z,20.24
2023-03-29T21:44:45.500Z,19.14
2023-03-29T21:47:12.239Z,20.42
2023-03-29T21:49:39.545Z,21.35
2023-03-29T21:52:07.047Z,21.63
2023-03-29T21:54:33.856Z,21.84
2023-03-29T21:57:00.667Z,22.00
2023-03-29T21:59:27.825Z,22.05
2023-03-29T22:01:54.740Z,22.12
2023-03-29T22:04:35.409Z,22.24
2023-03-29T22:07:03.691Z,22.42
2023-03-29T22:09:30.477Z,22.44
2023-03-29T22:11:59.558Z,22.58
2023-03-29T22:14:28.385Z,22.63
2023-03-29T22:16:55.354Z,22.64
2023-03-29T22:19:22.327Z,22.69
2023-03-29T22:21:49.146Z,22.78
2023-03-29T22:24:15.909Z,22.84
2023-03-29T22:26:44.753Z,22.85
2023-03-29T22:29:11.814Z,22.88
2023-03-29T22:31:39.295Z,22.90
2023-03-29T22:34:06.497Z,20.39
2023-03-29T22:36:33.403Z,18.30
2023-03-29T22:39:00.306Z,18.76
2023-03-29T22:41:28.064Z,20.65
2023-03-29T22:43:54.861Z,21.14
2023-03-29T22:46:21.685Z,21.39
2023-03-29T22:48:48.605Z,21.66
2023-03-29T22:51:16.048Z,21.74
2023-03-29T22:53:42.790Z,21.86
2023-03-29T22:56:09.591Z,21.99
2023-03-29T22:58:36.819Z,22.20
2023-03-29T23:01:03.752Z,22.19
2023-03-29T23:03:30.929Z,22.25
2023-03-29T23:05:57.767Z,22.30
2023-03-29T23:08:24.698Z,22.40
2023-03-29T23:10:51.462Z,22.51
2023-03-29T23:13:23.936Z,22.52
2023-03-29T23:15:50.735Z,22.60
2023-03-29T23:18:19.614Z,22.60
2023-03-29T23:20:47.120Z,22.68
2023-03-29T23:23:14.211Z,22.72
2023-03-29T23:25:41.311Z,22.80
2023-03-29T23:28:08.253Z,22.82
2023-03-29T23:30:36.986Z,22.95
2023-03-29T23:33:03.807Z,22.90
2023-03-29T23:35:30.749Z,21.25
2023-03-29T23:37:58.151Z,18.58
2023-03-29T23:40:24.943Z,18.04
2023-03-29T23:42:52.893Z,20.25
2023-03-29T23:45:19.650Z,20.84
2023-03-29T23:47:46.489Z,21.23
2023-03-29T23:50:13.663Z,21.54
2023-03-29T23:52:40.588Z,21.74
2023-03-29T23:55:07.358Z,21.84
2023-03-29T23:57:35.015Z,21.97
